createdAt,value
2022-08-04T00:01:45.935Z,23.80
2022-08-04T00:04:41.542Z,23.80
2022-08-04T00:07:44.449Z,23.90
2022-08-04T00:10:16.391Z,23.90
2022-08-04T00:12:47.695Z,24.00
2022-08-04T00:15:16.567Z,24.00
2022-08-04T00:17:49.569Z,24.00
2022-08-04T00:20:19.251Z,24.10
2022-08-04T00:22:48.102Z,24.00
2022-08-04T00:25:15.435Z,24.00
2022-08-04T00:27:42.086Z,23.80
2022-08-04T00:30:09.320Z,23.70
2022-08-04T00:32:36.181Z,23.70
2022-08-04T00:35:03.530Z,23.70
2022-08-04T00:37:30.682Z,23.80
2022-08-04T00:39:57.525Z,23.80
2022-08-04T00:42:37.399Z,23.80
2022-08-04T00:46:15.290Z,23.80
2022-08-04T00:49:00.885Z,23.90
2022-08-04T00:52:32.053Z,23.90
2022-08-04T00:54:54.670Z,23.90
2022-08-04T00:57:42.043Z,23.90
2022-08-04T01:00:14.374Z,23.80
2022-08-04T01:02:56.453Z,23.80
2022-08-04T01:05:52.097Z,23.80
2022-08-04T01:08:37.247Z,23.80
2022-08-04T01:11:16.079Z,23.80
2022-08-04T01:14:20.029Z,23.80
2022-08-04T01:16:53.157Z,23.80
2022-08-04T01:19:43.337Z,23.70
2022-08-04T01:22:32.366Z,23.70
2022-08-04T01:25:18.627Z,23.70
2022-08-04T01:28:06.895Z,23.70
2022-08-04T01:30:36.148Z,23.70
2022-08-04T01:33:07.954Z,23.70
2022-08-04T01:35:56.778Z,23.70
2022-08-04T01:38:30.362Z,23.60
2022-08-04T01:41:00.451Z,23.60
2022-08-04T01:43:29.414Z,23.50
2022-08-04T01:46:01.109Z,23.50
2022-08-04T01:48:29.250Z,23.50
2022-08-04T01:51:05.499Z,23.50
2022-08-04T01:53:35.017Z,23.40
2022-08-04T01:56:02.967Z,23.40
2022-08-04T01:58:32.336Z,23.40
2022-08-04T02:01:04.926Z,23.40
2022-08-04T02:04:19.868Z,23.40
2022-08-04T02:06:34.666Z,23.40
2022-08-04T02:09:16.546Z,23.40
2022-08-04T02:11:49.448Z,23.40
2022-08-04T02:14:40.832Z,23.40
2022-08-04T02:17:12.634Z,23.40
2022-08-04T02:20:03.863Z,23.50
2022-08-04T02:22:32.821Z,23.40
2022-08-04T02:25:10.313Z,23.30
2022-08-04T02:28:00.122Z,23.30
2022-08-04T02:30:37.746Z,23.30
2022-08-04T02:33:06.930Z,23.30
2022-08-04T02:35:38.467Z,23.20
2022-08-04T02:38:16.390Z,23.20
2022-08-04T02:40:43.658Z,23.20
2022-08-04T02:43:11.168Z,23.10
2022-08-04T02:45:43.394Z,23.10
2022-08-04T02:48:30.698Z,23.10
2022-08-04T02:50:59.726Z,23.10
2022-08-04T02:53:29.310Z,23.00
2022-08-04T02:55:57.466Z,22.90
2022-08-04T02:58:31.619Z,23.00
2022-08-04T03:00:58.411Z,23.00
2022-08-04T03:03:28.214Z,22.90
2022-08-04T03:06:13.214Z,22.90
2022-08-04T03:09:19.284Z,22.90
2022-08-04T03:12:11.329Z,22.80
2022-08-04T03:14:55.266Z,22.80
2022-08-04T03:17:52.367Z,22.80
2022-08-04T03:20:37.285Z,22.80
2022-08-04T03:23:24.689Z,22.80
2022-08-04T03:26:14.508Z,22.70
2022-08-04T03:29:36.717Z,22.80
2022-08-04T03:32:41.310Z,22.70
2022-08-04T03:35:35.889Z,22.70
2022-08-04T03:38:18.089Z,22.60
2022-08-04T03:42:03.084Z,22.70
2022-08-04T03:44:30.016Z,22.70
2022-08-04T03:47:07.775Z,22.70
2022-08-04T03:50:03.123Z,22.70
2022-08-04T03:53:08.604Z,22.70
2022-08-04T03:55:53.146Z,22.60
2022-08-04T03:58:38.333Z,21.70
2022-08-04T04:01:30.834Z,22.60
2022-08-04T04:04:33.208Z,22.70
2022-08-04T04:07:36.365Z,22.70
2022-08-04T04:10:26.820Z,22.70
2022-08-04T04:13:06.905Z,22.70
2022-08-04T04:16:17.202Z,22.70
2022-08-04T04:18:54.270Z,22.70
2022-08-04T04:21:27.270Z,22.70
2022-08-04T04:24:11.072Z,22.70
2022-08-04T04:26:51.471Z,22.80
2022-08-04T04:29:45.787Z,22.70
2022-08-04T04:32:52.747Z,22.80
2022-08-04T04:35:31.660Z,22.80
2022-08-04T04:38:16.907Z,23.70
2022-08-04T04:41:15.378Z,22.80
2022-08-04T04:44:35.811Z,22.90
2022-08-04T04:47:43.271Z,22.90
2022-08-04T04:50:41.729Z,23.90
2022-08-04T04:53:33.157Z,22.90
2022-08-04T04:56:27.279Z,23.00
2022-08-04T04:58:56.683Z,22.20
2022-08-04T05:01:51.053Z,23.00
2022-08-04T05:04:29.527Z,23.00
2022-08-04T05:07:24.197Z,23.10
2022-08-04T05:10:03.311Z,23.20
2022-08-04T05:14:36.959Z,23.30
2022-08-04T05:15:45.404Z,23.30
2022-08-04T05:18:19.208Z,23.40
2022-08-04T05:20:52.427Z,23.40
2022-08-04T05:23:28.850Z,23.50
2022-08-04T05:26:10.030Z,23.50
2022-08-04T05:28:41.396Z,23.50
2022-08-04T05:31:20.294Z,23.50
2022-08-04T05:33:57.514Z,23.60
2022-08-04T05:36:40.877Z,23.70
2022-08-04T05:39:13.306Z,23.80
2022-08-04T05:41:45.252Z,23.90
2022-08-04T05:44:15.147Z,24.00
2022-08-04T05:46:44.212Z,24.20
2022-08-04T05:49:16.527Z,24.30
2022-08-04T05:51:48.808Z,24.40
2022-08-04T05:54:18.403Z,24.50
2022-08-04T05:56:46.087Z,24.60
2022-08-04T05:59:13.505Z,24.60
2022-08-04T06:01:56.106Z,24.70
2022-08-04T06:04:30.982Z,24.70
2022-08-04T06:06:57.653Z,24.80
2022-08-04T06:09:24.594Z,24.90
2022-08-04T06:12:00.883Z,24.90
2022-08-04T06:14:36.976Z,25.00
2022-08-04T06:17:06.011Z,25.10
2022-08-04T06:20:00.175Z,25.00
2022-08-04T06:22:43.032Z,25.10
2022-08-04T06:25:12.112Z,25.10
2022-08-04T06:27:40.310Z,25.00
2022-08-04T06:30:10.367Z,25.10
2022-08-04T06:32:47.308Z,25.10
2022-08-04T06:35:16.704Z,25.20
2022-08-04T06:37:44.553Z,25.30
2022-08-04T06:40:31.258Z,25.30
2022-08-04T06:43:01.935Z,25.30
2022-08-04T06:45:29.389Z,25.30
2022-08-04T06:47:56.886Z,25.40
2022-08-04T06:51:32.109Z,25.50
2022-08-04T06:53:11.748Z,25.60
2022-08-04T06:55:40.002Z,25.70
2022-08-04T06:58:07.626Z,25.80
2022-08-04T07:00:36.393Z,25.80
2022-08-04T07:03:04.383Z,25.90
2022-08-04T07:05:31.958Z,25.90
2022-08-04T07:07:59.381Z,25.90
2022-08-04T07:10:30.712Z,26.00
2022-08-04T07:13:01.609Z,26.00
2022-08-04T07:15:28.974Z,26.10
2022-08-04T07:18:01.814Z,26.20
2022-08-04T07:20:34.386Z,26.30
2022-08-04T07:23:06.923Z,26.50
2022-08-04T07:25:59.569Z,26.60
2022-08-04T07:28:26.466Z,26.70
2022-08-04T07:30:54.622Z,26.80
2022-08-04T07:33:21.871Z,26.80
2022-08-04T07:36:09.412Z,26.90
2022-08-04T07:38:48.409Z,27.00
2022-08-04T07:41:39.083Z,27.10
2022-08-04T07:44:06.763Z,27.10
2022-08-04T07:46:33.638Z,27.20
2022-08-04T07:49:01.206Z,27.30
2022-08-04T07:51:30.395Z,27.40
2022-08-04T07:53:58.069Z,27.50
2022-08-04T07:56:26.641Z,27.60
2022-08-04T07:58:53.926Z,27.70
2022-08-04T08:01:21.462Z,27.70
2022-08-04T08:03:48.983Z,27.80
2022-08-04T08:06:17.601Z,28.00
2022-08-04T08:09:00.946Z,28.10
2022-08-04T08:12:35.502Z,28.20
2022-08-04T08:14:28.187Z,28.20
2022-08-04T08:16:54.937Z,28.30
2022-08-04T08:19:21.795Z,28.40
2022-08-04T08:21:59.325Z,28.50
2022-08-04T08:24:28.327Z,28.70
2022-08-04T08:26:56.777Z,28.80
2022-08-04T08:29:24.302Z,28.90
2022-08-04T08:31:58.388Z,29.00
2022-08-04T08:34:30.949Z,29.20
2022-08-04T08:37:33.726Z,29.30
2022-08-04T08:48:04.949Z,29.70
2022-08-04T08:50:36.296Z,29.70
2022-08-04T08:53:25.168Z,29.70
2022-08-04T08:56:12.844Z,29.80
2022-08-04T08:58:57.313Z,29.80
2022-08-04T09:01:45.833Z,29.90
2022-08-04T09:04:47.664Z,30.00
2022-08-04T09:07:47.730Z,30.20
2022-08-04T09:10:33.100Z,30.40
2022-08-04T09:13:08.332Z,30.60
2022-08-04T09:16:01.860Z,30.70
2022-08-04T09:18:37.660Z,30.70
2022-08-04T09:21:25.689Z,30.80
2022-08-04T09:24:36.322Z,30.90
2022-08-04T09:27:05.375Z,31.00
2022-08-04T09:30:08.492Z,31.10
2022-08-04T09:32:47.154Z,31.20
2022-08-04T09:35:34.577Z,31.30
2022-08-04T09:38:11.774Z,31.30
2022-08-04T09:40:58.949Z,31.40
2022-08-04T09:44:42.753Z,31.50
2022-08-04T09:46:52.074Z,31.60
2022-08-04T09:49:29.695Z,31.50
2022-08-04T09:52:08.478Z,31.50
2022-08-04T09:54:52.959Z,31.70
2022-08-04T09:57:31.587Z,31.80
2022-08-04T10:00:09.165Z,31.90
2022-08-04T10:02:42.580Z,32.00
2022-08-04T10:05:16.238Z,32.00
2022-08-04T10:08:15.534Z,32.00
2022-08-04T10:11:12.440Z,32.00
2022-08-04T10:13:51.900Z,32.10
2022-08-04T10:16:35.844Z,32.20
2022-08-04T10:19:24.089Z,32.30
2022-08-04T10:22:44.758Z,32.40
2022-08-04T10:26:02.647Z,32.40
2022-08-04T10:28:25.005Z,32.40
2022-08-04T10:30:59.179Z,32.50
2022-08-04T10:33:31.193Z,32.50
2022-08-04T10:36:04.299Z,32.60
2022-08-04T10:38:40.951Z,32.50
2022-08-04T10:41:52.883Z,32.30
2022-08-04T10:44:42.287Z,32.10
2022-08-04T10:47:20.144Z,32.20
2022-08-04T10:49:54.666Z,32.40
2022-08-04T10:52:42.410Z,32.50
2022-08-04T10:55:19.898Z,32.50
2022-08-04T10:57:52.618Z,32.60
2022-08-04T11:00:25.586Z,32.70
2022-08-04T11:02:55.519Z,32.80
2022-08-04T11:05:43.826Z,32.80
2022-08-04T11:08:35.559Z,32.90
2022-08-04T11:11:24.350Z,32.90
2022-08-04T11:14:04.134Z,32.90
2022-08-04T11:16:54.702Z,33.00
2022-08-04T11:19:45.026Z,33.10
2022-08-04T11:22:25.346Z,33.20
2022-08-04T11:25:21.771Z,33.10
2022-08-04T11:28:07.751Z,33.10
2022-08-04T11:30:45.623Z,33.00
2022-08-04T11:33:15.258Z,33.00
2022-08-04T11:35:50.583Z,33.10
2022-08-04T11:38:41.664Z,33.20
2022-08-04T11:41:15.926Z,33.30
2022-08-04T11:44:00.692Z,33.50
2022-08-04T11:46:55.907Z,33.60
2022-08-04T11:49:56.980Z,33.50
2022-08-04T11:52:28.081Z,33.60
2022-08-04T11:54:55.793Z,33.70
2022-08-04T11:57:35.053Z,34.00
2022-08-04T12:00:10.202Z,34.10
2022-08-04T12:02:51.980Z,34.10
2022-08-04T12:05:35.752Z,34.00
2022-08-04T12:08:40.892Z,33.90
2022-08-04T12:11:26.610Z,33.80
2022-08-04T12:14:21.107Z,33.50
2022-08-04T12:17:03.462Z,33.50
2022-08-04T12:20:05.117Z,33.60
2022-08-04T12:22:47.286Z,33.60
2022-08-04T12:25:20.811Z,33.50
2022-08-04T12:27:57.900Z,33.50
2022-08-04T12:30:59.070Z,33.70
2022-08-04T12:33:22.347Z,33.80
2022-08-04T12:36:05.263Z,33.90
2022-08-04T12:38:49.200Z,33.90
2022-08-04T12:41:23.092Z,33.90
2022-08-04T12:43:50.584Z,33.80
2022-08-04T12:46:25.898Z,33.90
2022-08-04T12:48:58.881Z,34.00
2022-08-04T12:51:30.940Z,34.10
2022-08-04T12:54:28.704Z,34.20
2022-08-04T12:56:58.818Z,34.40
2022-08-04T12:59:25.805Z,34.50
2022-08-04T13:02:09.029Z,34.50
2022-08-04T13:04:42.631Z,34.50
2022-08-04T13:07:25.293Z,34.40
2022-08-04T13:09:53.364Z,34.40
2022-08-04T13:12:32.528Z,34.30
2022-08-04T13:15:10.647Z,34.00
2022-08-04T13:17:59.880Z,33.70
2022-08-04T13:20:38.569Z,33.70
2022-08-04T13:23:09.231Z,33.60
2022-08-04T13:26:45.049Z,33.60
2022-08-04T13:28:34.515Z,33.60
2022-08-04T13:31:05.193Z,33.60
2022-08-04T13:33:38.710Z,33.50
2022-08-04T13:36:07.373Z,33.60
2022-08-04T13:38:36.523Z,33.80
2022-08-04T13:41:05.642Z,33.70
2022-08-04T13:44:18.949Z,32.50
2022-08-04T13:46:40.455Z,33.50
2022-08-04T13:49:38.049Z,33.70
2022-08-04T13:52:10.960Z,33.80
2022-08-04T13:54:43.560Z,33.70
2022-08-04T13:57:19.299Z,33.70
2022-08-04T13:59:51.725Z,33.60
2022-08-04T14:02:58.489Z,33.80
2022-08-04T14:05:31.375Z,34.20
2022-08-04T14:08:15.197Z,34.50
2022-08-04T14:10:42.053Z,34.50
2022-08-04T14:13:08.809Z,34.60
2022-08-04T14:16:02.046Z,34.80
2022-08-04T14:18:29.740Z,35.00
2022-08-04T14:21:05.465Z,35.20
2022-08-04T14:23:47.426Z,35.40
2022-08-04T14:26:21.431Z,35.40
2022-08-04T14:29:26.976Z,36.10
2022-08-04T14:32:01.985Z,35.30
2022-08-04T14:34:30.375Z,35.30
2022-08-04T14:37:16.335Z,35.40
2022-08-04T14:40:07.922Z,35.60
2022-08-04T14:42:43.745Z,35.20
2022-08-04T14:45:10.954Z,34.90
2022-08-04T14:47:52.882Z,34.70
2022-08-04T14:50:20.769Z,34.60
2022-08-04T14:52:47.487Z,34.30
2022-08-04T14:55:23.312Z,33.80
2022-08-04T14:58:36.285Z,33.30
2022-08-04T15:00:38.060Z,32.90
2022-08-04T15:03:09.115Z,32.30
2022-08-04T15:06:02.095Z,31.80
2022-08-04T15:08:31.455Z,31.40
2022-08-04T15:11:03.233Z,31.10
2022-08-04T15:13:34.858Z,30.80
2022-08-04T15:16:08.166Z,30.40
2022-08-04T15:18:39.055Z,30.20
2022-08-04T15:21:06.943Z,30.00
2022-08-04T15:23:38.831Z,29.80
2022-08-04T15:26:09.757Z,29.60
2022-08-04T15:28:38.330Z,29.30
2022-08-04T15:32:04.376Z,29.20
2022-08-04T15:33:58.022Z,29.00
2022-08-04T15:36:37.854Z,28.80
2022-08-04T15:39:38.006Z,28.80
2022-08-04T15:42:32.242Z,28.70
2022-08-04T15:45:04.217Z,28.50
2022-08-04T15:47:31.325Z,28.40
2022-08-04T15:50:12.522Z,28.10
2022-08-04T15:53:01.009Z,27.80
2022-08-04T15:55:41.283Z,27.60
2022-08-04T15:58:10.573Z,27.30
2022-08-04T16:00:54.117Z,26.90
2022-08-04T16:03:54.303Z,26.50
2022-08-04T16:06:22.532Z,25.90
2022-08-04T16:08:52.553Z,25.50
2022-08-04T16:11:31.848Z,25.20
2022-08-04T16:13:59.031Z,24.90
2022-08-04T16:16:31.699Z,24.80
2022-08-04T16:19:05.514Z,24.80
2022-08-04T16:21:35.426Z,25.00
2022-08-04T16:24:21.481Z,25.20
2022-08-04T16:26:56.430Z,25.30
2022-08-04T16:29:23.475Z,25.20
2022-08-04T16:32:05.534Z,25.20
2022-08-04T16:34:48.184Z,25.40
2022-08-04T16:37:19.187Z,25.40
2022-08-04T16:39:51.175Z,25.40
2022-08-04T16:42:30.620Z,25.30
2022-08-04T16:45:11.311Z,25.20
2022-08-04T16:47:49.924Z,24.60
2022-08-04T16:50:19.148Z,24.80
2022-08-04T16:52:52.030Z,24.90
2022-08-04T16:55:20.451Z,24.80
2022-08-04T16:57:48.147Z,24.90
2022-08-04T17:00:15.275Z,25.00
2022-08-04T17:02:43.475Z,25.10
2022-08-04T17:05:38.385Z,25.10
2022-08-04T17:10:56.833Z,25.20
2022-08-04T17:14:02.119Z,25.10
2022-08-04T17:16:23.765Z,25.10
2022-08-04T17:18:53.215Z,25.00
2022-08-04T17:21:32.415Z,24.90
2022-08-04T17:24:13.212Z,24.80
2022-08-04T17:26:54.009Z,25.00
2022-08-04T17:29:43.785Z,25.20
2022-08-04T17:32:16.422Z,25.30
2022-08-04T17:34:47.291Z,25.40
2022-08-04T17:40:11.466Z,25.70
2022-08-04T17:42:39.795Z,25.70
2022-08-04T17:47:55.804Z,25.10
2022-08-04T17:50:27.286Z,25.10
2022-08-04T17:53:11.688Z,25.00
2022-08-04T17:55:50.281Z,25.10
2022-08-04T17:58:20.896Z,25.20
2022-08-04T18:01:25.142Z,25.20
2022-08-04T18:03:53.662Z,25.10
2022-08-04T18:06:23.327Z,25.10
2022-08-04T18:08:57.978Z,25.00
2022-08-04T18:11:29.558Z,25.10
2022-08-04T18:14:08.550Z,25.00
2022-08-04T18:16:46.016Z,25.10
2022-08-04T18:19:19.013Z,25.20
2022-08-04T18:22:00.287Z,25.10
2022-08-04T18:24:34.100Z,25.00
2022-08-04T18:27:17.701Z,24.90
2022-08-04T18:30:14.946Z,24.90
2022-08-04T18:32:33.609Z,25.00
2022-08-04T18:38:06.716Z,25.20
2022-08-04T18:40:52.343Z,25.10
2022-08-04T18:43:28.393Z,25.10
2022-08-04T18:45:57.985Z,25.10
2022-08-04T18:48:36.302Z,25.10
2022-08-04T18:51:10.506Z,24.90
2022-08-04T18:53:55.144Z,24.90
2022-08-04T18:56:29.659Z,24.80
2022-08-04T18:59:03.706Z,24.80
2022-08-04T19:02:12.718Z,24.80
2022-08-04T19:04:32.760Z,24.60
2022-08-04T19:07:29.713Z,24.40
2022-08-04T19:09:58.226Z,24.40
2022-08-04T19:12:28.162Z,24.50
2022-08-04T19:14:58.378Z,24.60
2022-08-04T19:17:55.041Z,24.40
2022-08-04T19:20:15.762Z,24.30
2022-08-04T19:24:10.859Z,24.30
2022-08-04T19:25:59.959Z,24.20
2022-08-04T19:28:28.054Z,24.10
2022-08-04T19:30:57.997Z,24.00
2022-08-04T19:33:25.451Z,24.10
2022-08-04T19:35:52.922Z,24.00
2022-08-04T19:38:20.661Z,24.00
2022-08-04T19:40:50.552Z,23.90
2022-08-04T19:43:20.834Z,24.00
2022-08-04T19:45:50.588Z,24.00
2022-08-04T19:48:21.615Z,23.80
2022-08-04T19:50:49.303Z,23.70
2022-08-04T19:53:18.858Z,23.70
2022-08-04T19:58:34.271Z,23.70
2022-08-04T20:01:00.920Z,23.70
2022-08-04T20:04:08.915Z,23.60
2022-08-04T20:06:14.371Z,23.60
2022-08-04T20:08:48.003Z,23.70
2022-08-04T20:11:16.332Z,23.70
2022-08-04T20:13:43.907Z,23.70
2022-08-04T20:16:29.697Z,23.70
2022-08-04T20:19:02.821Z,23.50
2022-08-04T20:21:54.146Z,23.40
2022-08-04T20:27:08.784Z,23.30
2022-08-04T20:29:40.125Z,23.30
2022-08-04T20:32:09.596Z,23.20
2022-08-04T20:34:36.937Z,23.30
2022-08-04T20:37:03.822Z,23.30
2022-08-04T20:39:30.856Z,23.30
2022-08-04T20:41:57.833Z,23.20
2022-08-04T20:44:24.611Z,23.10
2022-08-04T20:46:51.287Z,23.00
2022-08-04T20:49:17.987Z,22.80
2022-08-04T20:51:44.732Z,22.70
2022-08-04T20:54:16.013Z,22.70
2022-08-04T20:56:50.761Z,22.60
2022-08-04T20:59:18.559Z,22.70
2022-08-04T21:01:48.868Z,22.70
2022-08-04T21:04:31.314Z,22.70
2022-08-04T21:07:03.599Z,22.60
2022-08-04T21:09:37.814Z,22.50
2022-08-04T21:12:10.642Z,22.40
2022-08-04T21:14:53.732Z,22.20
2022-08-04T21:17:21.177Z,22.20
2022-08-04T21:20:08.262Z,22.20
2022-08-04T21:22:39.873Z,22.10
2022-08-04T21:25:08.133Z,22.00
2022-08-04T21:27:43.394Z,22.00
2022-08-04T21:30:26.171Z,22.00
2022-08-04T21:32:55.115Z,21.90
2022-08-04T21:35:36.838Z,21.80
2022-08-04T21:38:17.106Z,21.80
2022-08-04T21:40:53.356Z,21.80
2022-08-04T21:43:23.763Z,21.80
2022-08-04T21:45:55.111Z,21.90
2022-08-04T21:48:23.158Z,21.90
2022-08-04T21:50:54.232Z,21.80
2022-08-04T21:53:21.475Z,21.70
2022-08-04T21:56:06.868Z,21.60
2022-08-04T21:58:34.867Z,21.60
2022-08-04T22:01:12.635Z,21.50
2022-08-04T22:03:52.968Z,21.40
2022-08-04T22:06:28.550Z,21.30
2022-08-04T22:08:56.771Z,21.30
2022-08-04T22:11:26.064Z,21.30
2022-08-04T22:16:41.560Z,21.30
2022-08-04T22:19:08.803Z,21.40
2022-08-04T22:21:39.329Z,21.30
2022-08-04T22:24:13.873Z,21.20
2022-08-04T22:26:41.063Z,21.20
2022-08-04T22:29:14.363Z,21.20
2022-08-04T22:31:55.933Z,21.20
2022-08-04T22:34:24.698Z,21.20
2022-08-04T22:36:51.388Z,21.20
2022-08-04T22:39:23.288Z,21.10
2022-08-04T22:42:03.270Z,21.10
2022-08-04T22:44:32.333Z,21.10
2022-08-04T22:47:00.016Z,21.10
2022-08-04T22:49:31.489Z,21.10
2022-08-04T22:51:58.849Z,21.10
2022-08-04T22:54:26.022Z,21.00
2022-08-04T22:56:55.390Z,21.00
2022-08-04T22:59:23.840Z,20.90
2022-08-04T23:01:59.284Z,20.90
2022-08-04T23:04:29.506Z,20.90
2022-08-04T23:06:56.219Z,20.90
2022-08-04T23:09:27.000Z,20.90
2022-08-04T23:12:24.269Z,21.00
2022-08-04T23:14:53.246Z,21.00
2022-08-04T23:17:21.857Z,21.00
2022-08-04T23:19:58.031Z,21.00
2022-08-04T23:22:42.048Z,21.00
2022-08-04T23:25:15.453Z,20.90
2022-08-04T23:27:50.869Z,20.90
2022-08-04T23:30:21.850Z,20.80
2022-08-04T23:32:53.076Z,20.70
2022-08-04T23:35:22.172Z,20.60
2022-08-04T23:37:56.574Z,20.50
2022-08-04T23:40:32.722Z,20.50
2022-08-04T23:43:00.588Z,20.40
2022-08-04T23:46:06.930Z,20.50
2022-08-04T23:48:20.883Z,20.50
2022-08-04T23:50:47.824Z,20.50
2022-08-04T23:53:18.608Z,20.50
2022-08-04T23:55:49.484Z,20.50
2022-08-04T23:58:18.661Z,20.50
